sensor_id;sensor_type;location;lat;lon;timestamp;P1;durP1;ratioP1;P2;durP2;ratioP2
7199;SDS011;3641;49.082;8.200;2023-10-13T00:00:25;15.70;;;7.15;;
7199;SDS011;3641;49.082;8.200;2023-10-13T00:02:54;15.70;;;7.03;;
7199;SDS011;3641;49.082;8.200;2023-10-13T00:05:25;15.80;;;6.35;;
7199;SDS011;3641;49.082;8.200;2023-10-13T00:07:52;15.18;;;6.60;;
7199;SDS011;3641;49.082;8.200;2023-10-13T00:10:19;16.20;;;6.00;;
7199;SDS011;3641;49.082;8.200;2023-10-13T00:12:46;13.00;;;6.57;;
7199;SDS011;3641;49.082;8.200;2023-10-13T00:15:16;18.80;;;7.07;;
7199;SDS011;3641;49.082;8.200;2023-10-13T00:17:46;18.60;;;6.75;;
7199;SDS011;3641;49.082;8.200;2023-10-13T00:20:12;18.23;;;6.93;;
7199;SDS011;3641;49.082;8.200;2023-10-13T00:22:53;15.88;;;6.72;;
7199;SDS011;3641;49.082;8.200;2023-10-13T00:25:22;13.88;;;6.32;;
7199;SDS011;3641;49.082;8.200;2023-10-13T00:27:52;16.52;;;6.70;;
7199;SDS011;3641;49.082;8.200;2023-10-13T00:30:20;16.75;;;6.57;;
7199;SDS011;3641;49.082;8.200;2023-10-13T00:32:58;23.70;;;7.20;;
7199;SDS011;3641;49.082;8.200;2023-10-13T00:35:25;18.05;;;6.93;;
7199;SDS011;3641;49.082;8.200;2023-10-13T00:37:54;16.08;;;7.30;;
7199;SDS011;3641;49.082;8.200;2023-10-13T00:40:21;16.27;;;6.05;;
7199;SDS011;3641;49.082;8.200;2023-10-13T00:43:01;10.30;;;5.78;;
7199;SDS011;3641;49.082;8.200;2023-10-13T00:45:51;11.63;;;6.43;;
7199;SDS011;3641;49.082;8.200;2023-10-13T00:48:22;16.95;;;6.43;;
7199;SDS011;3641;49.082;8.200;2023-10-13T00:50:53;13.98;;;6.72;;
7199;SDS011;3641;49.082;8.200;2023-10-13T00:53:21;12.90;;;6.15;;
7199;SDS011;3641;49.082;8.200;2023-10-13T00:55:47;14.75;;;6.63;;
7199;SDS011;3641;49.082;8.200;2023-10-13T00:58:14;12.15;;;6.05;;
7199;SDS011;3641;49.082;8.200;2023-10-13T01:00:47;16.10;;;6.82;;
7199;SDS011;3641;49.082;8.200;2023-10-13T01:03:22;13.88;;;6.45;;
7199;SDS011;3641;49.082;8.200;2023-10-13T01:05:51;13.25;;;5.85;;
7199;SDS011;3641;49.082;8.200;2023-10-13T01:08:19;13.52;;;6.22;;
7199;SDS011;3641;49.082;8.200;2023-10-13T01:10:58;14.20;;;6.20;;
7199;SDS011;3641;49.082;8.200;2023-10-13T01:13:23;14.30;;;5.90;;
7199;SDS011;3641;49.082;8.200;2023-10-13T01:15:52;13.57;;;6.05;;
7199;SDS011;3641;49.082;8.200;2023-10-13T01:18:17;13.07;;;5.85;;
7199;SDS011;3641;49.082;8.200;2023-10-13T01:20:46;11.27;;;5.43;;
7199;SDS011;3641;49.082;8.200;2023-10-13T01:23:18;14.88;;;6.50;;
7199;SDS011;3641;49.082;8.200;2023-10-13T01:25:49;12.90;;;5.60;;
7199;SDS011;3641;49.082;8.200;2023-10-13T01:28:14;12.98;;;5.25;;
7199;SDS011;3641;49.082;8.200;2023-10-13T01:30:41;11.02;;;5.82;;
7199;SDS011;3641;49.082;8.200;2023-10-13T01:33:07;15.50;;;6.10;;
7199;SDS011;3641;49.082;8.200;2023-10-13T01:35:35;15.82;;;6.00;;
7199;SDS011;3641;49.082;8.200;2023-10-13T01:38:01;11.50;;;5.22;;
7199;SDS011;3641;49.082;8.200;2023-10-13T01:40:29;13.68;;;5.28;;
7199;SDS011;3641;49.082;8.200;2023-10-13T01:42:58;12.60;;;5.25;;
7199;SDS011;3641;49.082;8.200;2023-10-13T01:45:24;12.50;;;5.68;;
7199;SDS011;3641;49.082;8.200;2023-10-13T01:47:54;12.88;;;4.75;;
7199;SDS011;3641;49.082;8.200;2023-10-13T01:50:19;21.15;;;6.15;;
7199;SDS011;3641;49.082;8.200;2023-10-13T01:52:53;10.85;;;5.72;;
7199;SDS011;3641;49.082;8.200;2023-10-13T01:55:25;14.55;;;6.15;;
7199;SDS011;3641;49.082;8.200;2023-10-13T01:57:54;16.15;;;5.90;;
7199;SDS011;3641;49.082;8.200;2023-10-13T02:00:20;10.35;;;5.22;;
7199;SDS011;3641;49.082;8.200;2023-10-13T02:02:46;16.20;;;5.45;;
7199;SDS011;3641;49.082;8.200;2023-10-13T02:05:15;13.10;;;5.97;;
7199;SDS011;3641;49.082;8.200;2023-10-13T02:07:42;15.13;;;5.65;;
7199;SDS011;3641;49.082;8.200;2023-10-13T02:10:10;18.13;;;5.65;;
7199;SDS011;3641;49.082;8.200;2023-10-13T02:12:37;10.02;;;5.00;;
7199;SDS011;3641;49.082;8.200;2023-10-13T02:15:09;13.38;;;5.57;;
7199;SDS011;3641;49.082;8.200;2023-10-13T02:17:37;12.68;;;5.50;;
7199;SDS011;3641;49.082;8.200;2023-10-13T02:20:08;16.92;;;5.68;;
7199;SDS011;3641;49.082;8.200;2023-10-13T02:22:41;12.77;;;5.75;;
7199;SDS011;3641;49.082;8.200;2023-10-13T02:25:14;11.05;;;5.32;;
7199;SDS011;3641;49.082;8.200;2023-10-13T02:27:42;13.73;;;5.47;;
7199;SDS011;3641;49.082;8.200;2023-10-13T02:30:10;14.20;;;5.65;;
7199;SDS011;3641;49.082;8.200;2023-10-13T02:32:39;14.05;;;5.82;;
7199;SDS011;3641;49.082;8.200;2023-10-13T02:35:08;14.55;;;5.85;;
7199;SDS011;3641;49.082;8.200;2023-10-13T02:37:40;16.42;;;5.90;;
7199;SDS011;3641;49.082;8.200;2023-10-13T02:40:09;15.82;;;5.68;;
7199;SDS011;3641;49.082;8.200;2023-10-13T02:42:36;12.50;;;5.72;;
7199;SDS011;3641;49.082;8.200;2023-10-13T02:45:02;11.05;;;5.57;;
7199;SDS011;3641;49.082;8.200;2023-10-13T02:47:31;14.65;;;5.80;;
7199;SDS011;3641;49.082;8.200;2023-10-13T02:49:56;12.73;;;5.70;;
7199;SDS011;3641;49.082;8.200;2023-10-13T02:52:25;12.25;;;5.90;;
7199;SDS011;3641;49.082;8.200;2023-10-13T02:54:52;16.10;;;6.35;;
7199;SDS011;3641;49.082;8.200;2023-10-13T02:57:18;15.00;;;6.05;;
7199;SDS011;3641;49.082;8.200;2023-10-13T02:59:44;14.07;;;5.43;;
7199;SDS011;3641;49.082;8.200;2023-10-13T03:02:11;13.70;;;5.57;;
7199;SDS011;3641;49.082;8.200;2023-10-13T03:04:50;16.73;;;5.80;;
7199;SDS011;3641;49.082;8.200;2023-10-13T03:07:15;13.52;;;6.13;;
7199;SDS011;3641;49.082;8.200;2023-10-13T03:09:48;16.40;;;5.93;;
7199;SDS011;3641;49.082;8.200;2023-10-13T03:12:15;12.82;;;5.78;;
7199;SDS011;3641;49.082;8.200;2023-10-13T03:14:42;14.52;;;5.30;;
7199;SDS011;3641;49.082;8.200;2023-10-13T03:17:12;14.90;;;6.32;;
7199;SDS011;3641;49.082;8.200;2023-10-13T03:19:42;14.75;;;6.38;;
7199;SDS011;3641;49.082;8.200;2023-10-13T03:22:12;15.43;;;6.53;;
7199;SDS011;3641;49.082;8.200;2023-10-13T03:24:41;12.93;;;7.05;;
7199;SDS011;3641;49.082;8.200;2023-10-13T03:27:11;14.00;;;6.97;;
7199;SDS011;3641;49.082;8.200;2023-10-13T03:29:41;11.00;;;5.78;;
7199;SDS011;3641;49.082;8.200;2023-10-13T03:32:08;14.80;;;6.13;;
7199;SDS011;3641;49.082;8.200;2023-10-13T03:34:37;17.20;;;6.43;;
7199;SDS011;3641;49.082;8.200;2023-10-13T03:37:15;11.77;;;6.13;;
7199;SDS011;3641;49.082;8.200;2023-10-13T03:39:45;13.02;;;6.50;;
7199;SDS011;3641;49.082;8.200;2023-10-13T03:42:11;13.90;;;5.70;;
7199;SDS011;3641;49.082;8.200;2023-10-13T03:44:43;15.73;;;5.75;;
7199;SDS011;3641;49.082;8.200;2023-10-13T03:47:11;12.38;;;6.03;;
7199;SDS011;3641;49.082;8.200;2023-10-13T03:49:44;9.98;;;5.85;;
7199;SDS011;3641;49.082;8.200;2023-10-13T03:52:17;13.50;;;6.30;;
7199;SDS011;3641;49.082;8.200;2023-10-13T03:54:47;11.25;;;5.78;;
7199;SDS011;3641;49.082;8.200;2023-10-13T03:57:16;13.05;;;5.63;;
7199;SDS011;3641;49.082;8.200;2023-10-13T03:59:43;10.95;;;4.82;;
7199;SDS011;3641;49.082;8.200;2023-10-13T04:02:13;13.60;;;5.32;;
7199;SDS011;3641;49.082;8.200;2023-10-13T04:04:43;14.77;;;5.35;;
7199;SDS011;3641;49.082;8.200;2023-10-13T04:07:15;17.38;;;6.13;;
7199;SDS011;3641;49.082;8.200;2023-10-13T04:10:03;13.77;;;5.90;;
7199;SDS011;3641;49.082;8.200;2023-10-13T04:12:55;11.30;;;4.90;;
7199;SDS011;3641;49.082;8.200;2023-10-13T04:15:42;13.13;;;5.05;;
7199;SDS011;3641;49.082;8.200;2023-10-13T04:18:27;13.20;;;5.80;;
7199;SDS011;3641;49.082;8.200;2023-10-13T04:21:12;13.25;;;5.07;;
7199;SDS011;3641;49.082;8.200;2023-10-13T04:24:06;13.73;;;6.90;;
7199;SDS011;3641;49.082;8.200;2023-10-13T04:26:48;13.82;;;6.88;;
7199;SDS011;3641;49.082;8.200;2023-10-13T04:29:43;16.65;;;6.85;;
7199;SDS011;3641;49.082;8.200;2023-10-13T04:32:17;12.95;;;6.28;;
7199;SDS011;3641;49.082;8.200;2023-10-13T04:34:53;16.33;;;5.32;;
7199;SDS011;3641;49.082;8.200;2023-10-13T04:37:23;16.58;;;6.47;;
7199;SDS011;3641;49.082;8.200;2023-10-13T04:39:55;15.75;;;5.03;;
7199;SDS011;3641;49.082;8.200;2023-10-13T04:42:33;15.05;;;5.50;;
7199;SDS011;3641;49.082;8.200;2023-10-13T04:45:15;13.27;;;6.00;;
7199;SDS011;3641;49.082;8.200;2023-10-13T04:48:03;17.50;;;5.22;;
7199;SDS011;3641;49.082;8.200;2023-10-13T04:50:44;17.38;;;5.90;;
7199;SDS011;3641;49.082;8.200;2023-10-13T04:53:12;12.18;;;5.18;;
7199;SDS011;3641;49.082;8.200;2023-10-13T04:55:59;12.23;;;5.20;;
7199;SDS011;3641;49.082;8.200;2023-10-13T04:58:54;13.15;;;6.05;;
7199;SDS011;3641;49.082;8.200;2023-10-13T05:01:38;13.57;;;5.65;;
7199;SDS011;3641;49.082;8.200;2023-10-13T05:04:36;10.90;;;4.88;;
7199;SDS011;3641;49.082;8.200;2023-10-13T05:07:24;12.07;;;5.57;;
7199;SDS011;3641;49.082;8.200;2023-10-13T05:10:08;11.30;;;4.68;;
7199;SDS011;3641;49.082;8.200;2023-10-13T05:12:53;10.52;;;4.90;;
7199;SDS011;3641;49.082;8.200;2023-10-13T05:15:42;10.77;;;5.18;;
7199;SDS011;3641;49.082;8.200;2023-10-13T05:18:26;10.32;;;5.38;;
7199;SDS011;3641;49.082;8.200;2023-10-13T05:21:10;9.30;;;4.68;;
7199;SDS011;3641;49.082;8.200;2023-10-13T05:23:54;12.88;;;5.70;;
7199;SDS011;3641;49.082;8.200;2023-10-13T05:26:38;10.73;;;4.95;;
7199;SDS011;3641;49.082;8.200;2023-10-13T05:29:23;13.65;;;5.28;;
7199;SDS011;3641;49.082;8.200;2023-10-13T05:32:04;15.00;;;6.00;;
7199;SDS011;3641;49.082;8.200;2023-10-13T05:34:48;13.40;;;5.22;;
7199;SDS011;3641;49.082;8.200;2023-10-13T05:37:32;13.15;;;5.20;;
7199;SDS011;3641;49.082;8.200;2023-10-13T05:40:24;14.93;;;5.25;;
7199;SDS011;3641;49.082;8.200;2023-10-13T05:43:09;11.60;;;4.80;;
7199;SDS011;3641;49.082;8.200;2023-10-13T05:45:55;12.70;;;5.45;;
7199;SDS011;3641;49.082;8.200;2023-10-13T05:48:43;16.00;;;5.35;;
7199;SDS011;3641;49.082;8.200;2023-10-13T05:51:34;10.73;;;5.30;;
7199;SDS011;3641;49.082;8.200;2023-10-13T05:54:09;12.80;;;4.90;;
7199;SDS011;3641;49.082;8.200;2023-10-13T05:56:53;10.43;;;5.20;;
7199;SDS011;3641;49.082;8.200;2023-10-13T05:59:37;13.15;;;5.22;;
7199;SDS011;3641;49.082;8.200;2023-10-13T06:02:23;14.30;;;4.97;;
7199;SDS011;3641;49.082;8.200;2023-10-13T06:05:10;13.15;;;5.35;;
7199;SDS011;3641;49.082;8.200;2023-10-13T06:07:56;12.32;;;5.53;;
7199;SDS011;3641;49.082;8.200;2023-10-13T06:10:41;11.05;;;4.97;;
7199;SDS011;3641;49.082;8.200;2023-10-13T06:13:26;17.77;;;5.60;;
7199;SDS011;3641;49.082;8.200;2023-10-13T06:16:10;11.75;;;5.22;;
7199;SDS011;3641;49.082;8.200;2023-10-13T06:18:57;13.02;;;5.30;;
7199;SDS011;3641;49.082;8.200;2023-10-13T06:21:42;13.77;;;4.75;;
7199;SDS011;3641;49.082;8.200;2023-10-13T06:24:26;11.15;;;4.90;;
7199;SDS011;3641;49.082;8.200;2023-10-13T06:27:10;13.98;;;5.72;;
7199;SDS011;3641;49.082;8.200;2023-10-13T06:29:54;12.18;;;4.70;;
7199;SDS011;3641;49.082;8.200;2023-10-13T06:32:21;12.43;;;5.45;;
7199;SDS011;3641;49.082;8.200;2023-10-13T06:34:52;14.80;;;4.90;;
7199;SDS011;3641;49.082;8.200;2023-10-13T06:37:22;13.02;;;4.63;;
7199;SDS011;3641;49.082;8.200;2023-10-13T06:39:51;12.88;;;4.80;;
7199;SDS011;3641;49.082;8.200;2023-10-13T06:42:21;12.60;;;5.30;;
7199;SDS011;3641;49.082;8.200;2023-10-13T06:44:52;17.77;;;6.10;;
7199;SDS011;3641;49.082;8.200;2023-10-13T06:47:19;9.90;;;4.60;;
7199;SDS011;3641;49.082;8.200;2023-10-13T06:49:46;10.85;;;4.57;;
7199;SDS011;3641;49.082;8.200;2023-10-13T06:52:17;12.07;;;4.80;;
7199;SDS011;3641;49.082;8.200;2023-10-13T06:54:44;12.30;;;4.80;;
7199;SDS011;3641;49.082;8.200;2023-10-13T06:57:11;13.40;;;4.47;;
7199;SDS011;3641;49.082;8.200;2023-10-13T06:59:40;14.18;;;4.30;;
7199;SDS011;3641;49.082;8.200;2023-10-13T07:02:06;12.70;;;4.40;;
7199;SDS011;3641;49.082;8.200;2023-10-13T07:04:34;11.23;;;5.05;;
7199;SDS011;3641;49.082;8.200;2023-10-13T07:07:04;9.93;;;4.22;;
7199;SDS011;3641;49.082;8.200;2023-10-13T07:09:36;9.55;;;4.38;;
7199;SDS011;3641;49.082;8.200;2023-10-13T07:12:06;14.50;;;4.95;;
7199;SDS011;3641;49.082;8.200;2023-10-13T07:14:33;11.43;;;4.68;;
7199;SDS011;3641;49.082;8.200;2023-10-13T07:17:01;11.77;;;4.95;;
7199;SDS011;3641;49.082;8.200;2023-10-13T07:19:30;13.07;;;5.03;;
7199;SDS011;3641;49.082;8.200;2023-10-13T07:21:56;11.63;;;4.72;;
7199;SDS011;3641;49.082;8.200;2023-10-13T07:24:25;12.18;;;4.55;;
7199;SDS011;3641;49.082;8.200;2023-10-13T07:26:54;9.55;;;4.47;;
7199;SDS011;3641;49.082;8.200;2023-10-13T07:29:28;12.10;;;4.78;;
7199;SDS011;3641;49.082;8.200;2023-10-13T07:31:55;12.73;;;4.32;;
7199;SDS011;3641;49.082;8.200;2023-10-13T07:34:21;10.05;;;4.03;;
7199;SDS011;3641;49.082;8.200;2023-10-13T07:36:51;20.45;;;5.28;;
7199;SDS011;3641;49.082;8.200;2023-10-13T07:39:19;8.93;;;4.13;;
7199;SDS011;3641;49.082;8.200;2023-10-13T07:41:50;12.07;;;4.78;;
7199;SDS011;3641;49.082;8.200;2023-10-13T07:44:20;11.45;;;4.72;;
7199;SDS011;3641;49.082;8.200;2023-10-13T07:46:50;13.65;;;4.53;;
7199;SDS011;3641;49.082;8.200;2023-10-13T07:49:26;16.33;;;5.18;;
7199;SDS011;3641;49.082;8.200;2023-10-13T07:51:55;13.45;;;4.43;;
7199;SDS011;3641;49.082;8.200;2023-10-13T07:54:25;8.20;;;4.05;;
7199;SDS011;3641;49.082;8.200;2023-10-13T07:56:52;12.82;;;4.40;;
7199;SDS011;3641;49.082;8.200;2023-10-13T07:59:21;13.88;;;4.60;;
7199;SDS011;3641;49.082;8.200;2023-10-13T08:01:49;8.57;;;4.10;;
7199;SDS011;3641;49.082;8.200;2023-10-13T08:04:37;15.70;;;4.93;;
7199;SDS011;3641;49.082;8.200;2023-10-13T08:07:03;10.50;;;4.30;;
7199;SDS011;3641;49.082;8.200;2023-10-13T08:09:37;11.05;;;4.47;;
7199;SDS011;3641;49.082;8.200;2023-10-13T08:12:06;10.93;;;4.30;;
7199;SDS011;3641;49.082;8.200;2023-10-13T08:14:38;11.85;;;3.85;;
7199;SDS011;3641;49.082;8.200;2023-10-13T08:17:06;12.68;;;4.35;;
7199;SDS011;3641;49.082;8.200;2023-10-13T08:19:35;10.57;;;4.65;;
7199;SDS011;3641;49.082;8.200;2023-10-13T08:22:10;10.38;;;4.07;;
7199;SDS011;3641;49.082;8.200;2023-10-13T08:24:48;12.75;;;3.97;;
7199;SDS011;3641;49.082;8.200;2023-10-13T08:27:40;15.30;;;4.07;;
7199;SDS011;3641;49.082;8.200;2023-10-13T08:30:16;11.75;;;4.43;;
7199;SDS011;3641;49.082;8.200;2023-10-13T08:32:55;11.75;;;4.05;;
7199;SDS011;3641;49.082;8.200;2023-10-13T08:35:24;11.82;;;3.97;;
7199;SDS011;3641;49.082;8.200;2023-10-13T08:38:00;11.57;;;3.80;;
7199;SDS011;3641;49.082;8.200;2023-10-13T08:40:38;13.32;;;4.57;;
7199;SDS011;3641;49.082;8.200;2023-10-13T08:43:28;15.48;;;3.83;;
7199;SDS011;3641;49.082;8.200;2023-10-13T08:46:09;11.77;;;4.63;;
7199;SDS011;3641;49.082;8.200;2023-10-13T08:48:49;10.38;;;3.83;;
7199;SDS011;3641;49.082;8.200;2023-10-13T08:51:18;16.30;;;3.75;;
7199;SDS011;3641;49.082;8.200;2023-10-13T08:54:07;10.80;;;3.70;;
7199;SDS011;3641;49.082;8.200;2023-10-13T08:56:44;8.55;;;3.67;;
7199;SDS011;3641;49.082;8.200;2023-10-13T08:59:19;12.50;;;3.40;;
7199;SDS011;3641;49.082;8.200;2023-10-13T09:01:49;12.55;;;3.42;;
7199;SDS011;3641;49.082;8.200;2023-10-13T09:04:24;13.05;;;3.90;;
7199;SDS011;3641;49.082;8.200;2023-10-13T09:06:57;10.35;;;3.45;;
7199;SDS011;3641;49.082;8.200;2023-10-13T09:09:33;12.32;;;3.55;;
7199;SDS011;3641;49.082;8.200;2023-10-13T09:12:25;9.65;;;3.88;;
7199;SDS011;3641;49.082;8.200;2023-10-13T09:15:04;10.05;;;3.10;;
7199;SDS011;3641;49.082;8.200;2023-10-13T09:17:40;14.27;;;3.40;;
7199;SDS011;3641;49.082;8.200;2023-10-13T09:20:12;17.13;;;4.30;;
7199;SDS011;3641;49.082;8.200;2023-10-13T09:22:50;15.90;;;4.30;;
7199;SDS011;3641;49.082;8.200;2023-10-13T09:25:33;11.80;;;3.58;;
7199;SDS011;3641;49.082;8.200;2023-10-13T09:28:00;18.95;;;3.80;;
7199;SDS011;3641;49.082;8.200;2023-10-13T09:30:27;16.30;;;3.28;;
7199;SDS011;3641;49.082;8.200;2023-10-13T09:33:00;15.45;;;3.95;;
7199;SDS011;3641;49.082;8.200;2023-10-13T09:35:29;13.82;;;3.45;;
7199;SDS011;3641;49.082;8.200;2023-10-13T09:37:59;14.02;;;3.70;;
7199;SDS011;3641;49.082;8.200;2023-10-13T09:40:27;12.38;;;4.00;;
7199;SDS011;3641;49.082;8.200;2023-10-13T09:43:00;9.52;;;3.60;;
7199;SDS011;3641;49.082;8.200;2023-10-13T09:45:33;12.23;;;3.30;;
7199;SDS011;3641;49.082;8.200;2023-10-13T09:48:03;14.93;;;3.40;;
7199;SDS011;3641;49.082;8.200;2023-10-13T09:50:37;11.45;;;3.22;;
7199;SDS011;3641;49.082;8.200;2023-10-13T09:53:09;8.13;;;3.25;;
7199;SDS011;3641;49.082;8.200;2023-10-13T09:55:40;12.98;;;3.05;;
7199;SDS011;3641;49.082;8.200;2023-10-13T09:58:10;12.48;;;3.60;;
7199;SDS011;3641;49.082;8.200;2023-10-13T10:00:43;12.02;;;3.85;;
7199;SDS011;3641;49.082;8.200;2023-10-13T10:03:14;20.52;;;3.60;;
7199;SDS011;3641;49.082;8.200;2023-10-13T10:05:58;11.82;;;3.60;;
7199;SDS011;3641;49.082;8.200;2023-10-13T10:08:31;12.00;;;4.03;;
7199;SDS011;3641;49.082;8.200;2023-10-13T10:11:00;11.48;;;4.00;;
7199;SDS011;3641;49.082;8.200;2023-10-13T10:13:34;9.20;;;3.47;;
7199;SDS011;3641;49.082;8.200;2023-10-13T10:16:07;9.75;;;3.30;;
7199;SDS011;3641;49.082;8.200;2023-10-13T10:18:41;10.63;;;3.58;;
7199;SDS011;3641;49.082;8.200;2023-10-13T10:21:07;13.98;;;3.72;;
7199;SDS011;3641;49.082;8.200;2023-10-13T10:23:36;11.20;;;3.72;;
7199;SDS011;3641;49.082;8.200;2023-10-13T10:26:11;9.25;;;3.15;;
7199;SDS011;3641;49.082;8.200;2023-10-13T10:28:39;9.63;;;4.25;;
7199;SDS011;3641;49.082;8.200;2023-10-13T10:31:07;13.05;;;3.75;;
7199;SDS011;3641;49.082;8.200;2023-10-13T10:33:37;7.97;;;3.25;;
7199;SDS011;3641;49.082;8.200;2023-10-13T10:36:05;13.30;;;3.55;;
7199;SDS011;3641;49.082;8.200;2023-10-13T10:38:50;9.32;;;3.42;;
7199;SDS011;3641;49.082;8.200;2023-10-13T10:41:24;11.38;;;3.60;;
7199;SDS011;3641;49.082;8.200;2023-10-13T10:43:54;13.25;;;4.10;;
7199;SDS011;3641;49.082;8.200;2023-10-13T10:46:25;9.15;;;4.13;;
7199;SDS011;3641;49.082;8.200;2023-10-13T10:48:52;9.60;;;3.42;;
7199;SDS011;3641;49.082;8.200;2023-10-13T10:51:27;9.98;;;4.07;;
7199;SDS011;3641;49.082;8.200;2023-10-13T10:53:57;12.90;;;3.78;;
7199;SDS011;3641;49.082;8.200;2023-10-13T10:56:36;11.43;;;4.20;;
7199;SDS011;3641;49.082;8.200;2023-10-13T10:59:04;13.10;;;3.60;;
7199;SDS011;3641;49.082;8.200;2023-10-13T11:01:31;11.18;;;4.18;;
7199;SDS011;3641;49.082;8.200;2023-10-13T11:04:04;9.20;;;3.30;;
7199;SDS011;3641;49.082;8.200;2023-10-13T11:06:44;11.63;;;3.80;;
7199;SDS011;3641;49.082;8.200;2023-10-13T11:09:11;10.85;;;3.88;;
7199;SDS011;3641;49.082;8.200;2023-10-13T11:11:52;9.82;;;4.00;;
7199;SDS011;3641;49.082;8.200;2023-10-13T11:14:20;12.18;;;3.63;;
7199;SDS011;3641;49.082;8.200;2023-10-13T11:16:49;10.82;;;3.45;;
7199;SDS011;3641;49.082;8.200;2023-10-13T11:19:18;13.10;;;3.35;;
7199;SDS011;3641;49.082;8.200;2023-10-13T11:21:51;10.85;;;3.20;;
7199;SDS011;3641;49.082;8.200;2023-10-13T11:24:19;8.48;;;3.50;;
7199;SDS011;3641;49.082;8.200;2023-10-13T11:26:46;11.65;;;3.55;;
7199;SDS011;3641;49.082;8.200;2023-10-13T11:29:17;7.43;;;3.60;;
7199;SDS011;3641;49.082;8.200;2023-10-13T11:31:45;13.25;;;3.40;;
7199;SDS011;3641;49.082;8.200;2023-10-13T11:34:18;10.45;;;3.45;;
7199;SDS011;3641;49.082;8.200;2023-10-13T11:36:45;10.55;;;3.65;;
7199;SDS011;3641;49.082;8.200;2023-10-13T11:39:13;17.25;;;4.90;;
7199;SDS011;3641;49.082;8.200;2023-10-13T11:41:44;10.13;;;3.92;;
7199;SDS011;3641;49.082;8.200;2023-10-13T11:44:18;12.02;;;3.55;;
7199;SDS011;3641;49.082;8.200;2023-10-13T11:46:56;11.10;;;3.50;;
7199;SDS011;3641;49.082;8.200;2023-10-13T11:49:32;12.45;;;3.97;;
7199;SDS011;3641;49.082;8.200;2023-10-13T11:52:02;10.82;;;3.65;;
7199;SDS011;3641;49.082;8.200;2023-10-13T11:54:44;9.40;;;3.53;;
7199;SDS011;3641;49.082;8.200;2023-10-13T11:57:12;8.23;;;3.67;;
7199;SDS011;3641;49.082;8.200;2023-10-13T11:59:41;9.48;;;3.33;;
7199;SDS011;3641;49.082;8.200;2023-10-13T12:02:18;13.32;;;3.80;;
7199;SDS011;3641;49.082;8.200;2023-10-13T12:05:02;11.68;;;3.67;;
7199;SDS011;3641;49.082;8.200;2023-10-13T12:07:36;20.27;;;3.60;;
7199;SDS011;3641;49.082;8.200;2023-10-13T12:10:14;11.02;;;3.50;;
7199;SDS011;3641;49.082;8.200;2023-10-13T12:12:45;14.88;;;3.75;;
7199;SDS011;3641;49.082;8.200;2023-10-13T12:15:18;12.15;;;3.92;;
7199;SDS011;3641;49.082;8.200;2023-10-13T12:17:55;12.32;;;3.50;;
7199;SDS011;3641;49.082;8.200;2023-10-13T12:20:23;7.13;;;3.28;;
7199;SDS011;3641;49.082;8.200;2023-10-13T12:22:57;15.10;;;3.45;;
7199;SDS011;3641;49.082;8.200;2023-10-13T12:25:36;8.38;;;3.60;;
7199;SDS011;3641;49.082;8.200;2023-10-13T12:28:19;8.98;;;3.47;;
7199;SDS011;3641;49.082;8.200;2023-10-13T12:30:48;14.73;;;4.18;;
7199;SDS011;3641;49.082;8.200;2023-10-13T12:33:16;11.25;;;4.07;;
7199;SDS011;3641;49.082;8.200;2023-10-13T12:35:50;7.38;;;3.67;;
7199;SDS011;3641;49.082;8.200;2023-10-13T12:38:28;10.48;;;3.60;;
7199;SDS011;3641;49.082;8.200;2023-10-13T12:41:17;9.48;;;4.00;;
7199;SDS011;3641;49.082;8.200;2023-10-13T12:44:02;10.00;;;4.05;;
7199;SDS011;3641;49.082;8.200;2023-10-13T12:46:47;15.15;;;4.38;;
7199;SDS011;3641;49.082;8.200;2023-10-13T12:49:32;12.23;;;3.67;;
7199;SDS011;3641;49.082;8.200;2023-10-13T12:52:23;8.43;;;3.47;;
7199;SDS011;3641;49.082;8.200;2023-10-13T12:54:57;7.68;;;3.60;;
7199;SDS011;3641;49.082;8.200;2023-10-13T12:57:33;10.93;;;3.58;;
7199;SDS011;3641;49.082;8.200;2023-10-13T13:00:08;8.68;;;3.50;;
7199;SDS011;3641;49.082;8.200;2023-10-13T13:02:45;12.43;;;3.33;;
7199;SDS011;3641;49.082;8.200;2023-10-13T13:05:12;12.32;;;4.10;;
7199;SDS011;3641;49.082;8.200;2023-10-13T13:07:39;9.02;;;3.50;;
7199;SDS011;3641;49.082;8.200;2023-10-13T13:10:17;11.45;;;3.47;;
7199;SDS011;3641;49.082;8.200;2023-10-13T13:12:45;8.25;;;3.63;;
7199;SDS011;3641;49.082;8.200;2023-10-13T13:15:12;10.88;;;4.35;;
7199;SDS011;3641;49.082;8.200;2023-10-13T13:17:39;8.32;;;3.47;;
7199;SDS011;3641;49.082;8.200;2023-10-13T13:20:06;10.25;;;3.88;;
7199;SDS011;3641;49.082;8.200;2023-10-13T13:22:50;9.70;;;3.28;;
7199;SDS011;3641;49.082;8.200;2023-10-13T13:25:18;13.98;;;3.65;;
7199;SDS011;3641;49.082;8.200;2023-10-13T13:27:51;7.40;;;3.50;;
7199;SDS011;3641;49.082;8.200;2023-10-13T13:30:18;13.05;;;4.28;;
7199;SDS011;3641;49.082;8.200;2023-10-13T13:32:46;11.40;;;3.38;;
7199;SDS011;3641;49.082;8.200;2023-10-13T13:35:13;12.75;;;4.20;;
7199;SDS011;3641;49.082;8.200;2023-10-13T13:37:40;10.52;;;3.80;;
7199;SDS011;3641;49.082;8.200;2023-10-13T13:40:09;10.93;;;3.63;;
7199;SDS011;3641;49.082;8.200;2023-10-13T13:42:40;11.15;;;3.60;;
7199;SDS011;3641;49.082;8.200;2023-10-13T13:45:12;14.38;;;2.97;;
7199;SDS011;3641;49.082;8.200;2023-10-13T13:47:46;9.27;;;3.20;;
7199;SDS011;3641;49.082;8.200;2023-10-13T13:50:18;10.48;;;3.63;;
7199;SDS011;3641;49.082;8.200;2023-10-13T13:52:49;8.05;;;3.13;;
7199;SDS011;3641;49.082;8.200;2023-10-13T13:55:17;8.18;;;3.30;;
7199;SDS011;3641;49.082;8.200;2023-10-13T13:57:44;11.48;;;3.83;;
7199;SDS011;3641;49.082;8.200;2023-10-13T14:00:13;12.43;;;4.05;;
7199;SDS011;3641;49.082;8.200;2023-10-13T14:02:42;10.95;;;3.25;;
7199;SDS011;3641;49.082;8.200;2023-10-13T14:05:12;11.60;;;3.30;;
7199;SDS011;3641;49.082;8.200;2023-10-13T14:07:40;11.40;;;3.47;;
7199;SDS011;3641;49.082;8.200;2023-10-13T14:10:07;7.88;;;3.10;;
7199;SDS011;3641;49.082;8.200;2023-10-13T14:12:41;11.75;;;3.88;;
7199;SDS011;3641;49.082;8.200;2023-10-13T14:15:07;10.95;;;3.42;;
7199;SDS011;3641;49.082;8.200;2023-10-13T14:17:46;11.82;;;3.80;;
7199;SDS011;3641;49.082;8.200;2023-10-13T14:20:14;14.98;;;3.30;;
7199;SDS011;3641;49.082;8.200;2023-10-13T14:22:43;12.18;;;3.45;;
7199;SDS011;3641;49.082;8.200;2023-10-13T14:25:12;13.60;;;3.28;;
7199;SDS011;3641;49.082;8.200;2023-10-13T14:27:39;11.88;;;3.28;;
7199;SDS011;3641;49.082;8.200;2023-10-13T14:30:06;12.93;;;3.65;;
7199;SDS011;3641;49.082;8.200;2023-10-13T14:32:33;10.63;;;3.47;;
7199;SDS011;3641;49.082;8.200;2023-10-13T14:35:07;10.93;;;3.17;;
7199;SDS011;3641;49.082;8.200;2023-10-13T14:37:39;12.40;;;3.20;;
7199;SDS011;3641;49.082;8.200;2023-10-13T14:40:06;8.10;;;3.00;;
7199;SDS011;3641;49.082;8.200;2023-10-13T14:42:38;12.93;;;3.42;;
7199;SDS011;3641;49.082;8.200;2023-10-13T14:45:05;12.48;;;3.63;;
7199;SDS011;3641;49.082;8.200;2023-10-13T14:47:37;14.70;;;3.58;;
7199;SDS011;3641;49.082;8.200;2023-10-13T14:50:04;12.30;;;3.63;;
7199;SDS011;3641;49.082;8.200;2023-10-13T14:52:39;8.27;;;3.50;;
7199;SDS011;3641;49.082;8.200;2023-10-13T14:55:08;13.23;;;3.60;;
7199;SDS011;3641;49.082;8.200;2023-10-13T14:57:43;13.50;;;3.30;;
7199;SDS011;3641;49.082;8.200;2023-10-13T15:00:11;12.88;;;3.15;;
7199;SDS011;3641;49.082;8.200;2023-10-13T15:02:39;9.75;;;3.08;;
7199;SDS011;3641;49.082;8.200;2023-10-13T15:05:09;8.48;;;3.05;;
7199;SDS011;3641;49.082;8.200;2023-10-13T15:07:41;10.98;;;3.67;;
7199;SDS011;3641;49.082;8.200;2023-10-13T15:10:10;9.15;;;3.33;;
7199;SDS011;3641;49.082;8.200;2023-10-13T15:12:39;10.95;;;3.67;;
7199;SDS011;3641;49.082;8.200;2023-10-13T15:15:07;9.23;;;3.00;;
7199;SDS011;3641;49.082;8.200;2023-10-13T15:17:38;9.73;;;3.63;;
7199;SDS011;3641;49.082;8.200;2023-10-13T15:20:05;12.18;;;3.58;;
7199;SDS011;3641;49.082;8.200;2023-10-13T15:22:36;8.82;;;3.58;;
7199;SDS011;3641;49.082;8.200;2023-10-13T15:25:03;10.73;;;3.20;;
7199;SDS011;3641;49.082;8.200;2023-10-13T15:27:42;10.30;;;3.38;;
7199;SDS011;3641;49.082;8.200;2023-10-13T15:30:10;7.60;;;3.25;;
7199;SDS011;3641;49.082;8.200;2023-10-13T15:32:47;10.20;;;3.15;;
7199;SDS011;3641;49.082;8.200;2023-10-13T15:35:14;14.57;;;3.95;;
7199;SDS011;3641;49.082;8.200;2023-10-13T15:37:42;10.57;;;3.33;;